الصفحة الرئيسية
METAR-TAF:

METAR-TAF

مطار :

مطار الرباط سلا

الرباط, المغرب

دائرة عرض: 34-03N, خط طول: 006-46W, ارتفاع: 84 متر

مراقبة الطقس الحالي

تاريخ ووقت الإصدار 22 دقيقة قبل الساعة 08:30UTC
ريح 5 عقدة من الجنوب الشرقي
درجة الحرارة 15°درجة مئوية
الرطوبة 88%
ضغط 1009 hPa
الرؤية: 6000 متر

METAR: GMME 040830Z 13005KT 6000 NSC 15/13 Q1009 NOSIG

زمن: 09:52 (08:52 UTC)

توقعات

تاريخ ووقت الإصدار 3ساعات و 52 دقيقة قبل الساعة 05:00UTC
التوقعات صالحة من04 الساعة 06 UTC إلى 05 الساعة 12 UTC
ريح 6 عقدة من الشرق/الجنوب الشرقي
الرؤية: 6000 متر
نظرية الاحتمالات 30% :
مؤقت
من 04 الساعة 06 UTC إلى 04 الساعة 09 UTC
الرؤية: 4000 متر
غشاء

TAF: GMME 040500Z 0406/0512 11006KT 6000 NSC PROB30 TEMPO 0406/0409 4000 BR

أرصاد الطقس والتوقعات من أكثر من 4000 مطار (تقارير الطقس للمطار METAR والتنبؤ بالطقس بالمطارTAF).

المحطات المتاحة هي النقط الصفراء والحمراء على الخريطة.

حرك المؤشر فوق النقطة لمعرفة اسم المحطة.

ثم انقر لمعرفة أرصاد وتوقعات الطقس.

لتغيير الخارطة: اضغط على الأزرار الخضراء مع رمز الصليب الأسود للتكبير. على الزر الأخضر مع شرطة للتصغير، أو على الأسهم الخضراء للخرائط المجاورة.


METAR-TAF: